createdAt,value
2022-10-14T00:01:27.218Z,7.90
2022-10-14T00:04:29.889Z,8.23
2022-10-14T00:07:31.276Z,8.60
2022-10-14T00:10:32.675Z,8.30
2022-10-14T00:13:35.078Z,8.60
2022-10-14T00:16:38.985Z,8.60
2022-10-14T00:19:40.455Z,8.63
2022-10-14T00:22:41.825Z,8.57
2022-10-14T00:25:43.192Z,7.83
2022-10-14T00:28:44.761Z,7.93
2022-10-14T00:31:47.184Z,8.47
2022-10-14T00:34:50.335Z,7.73
2022-10-14T00:37:51.732Z,7.43
2022-10-14T00:40:55.086Z,8.40
2022-10-14T00:44:00.941Z,8.07
2022-10-14T00:47:02.441Z,8.53
2022-10-14T00:50:04.203Z,8.60
2022-10-14T00:53:05.855Z,8.10
2022-10-14T00:56:09.077Z,8.20
2022-10-14T00:59:11.682Z,8.83
2022-10-14T01:02:13.323Z,8.57
2022-10-14T01:05:17.466Z,9.07
2022-10-14T01:08:30.860Z,8.23
2022-10-14T01:11:41.818Z,8.20
2022-10-14T01:14:54.489Z,8.97
2022-10-14T01:18:28.411Z,9.00
2022-10-14T01:21:43.682Z,9.43
2022-10-14T01:25:09.570Z,8.53
2022-10-14T01:28:49.553Z,8.43
2022-10-14T01:32:04.124Z,8.33
2022-10-14T01:35:19.520Z,8.67
2022-10-14T01:38:29.301Z,9.53
2022-10-14T01:41:39.057Z,9.50
2022-10-14T01:44:45.182Z,9.07
2022-10-14T01:47:50.129Z,10.17
2022-10-14T01:50:55.649Z,10.17
2022-10-14T01:54:06.104Z,9.50
2022-10-14T01:57:30.468Z,10.00
2022-10-14T02:00:32.026Z,9.87
2022-10-14T02:03:42.153Z,9.67
2022-10-14T02:07:02.658Z,9.30
2022-10-14T02:10:45.672Z,9.40
2022-10-14T02:13:54.937Z,10.17
2022-10-14T02:17:19.365Z,9.23
2022-10-14T02:20:28.206Z,10.73
2022-10-14T02:23:38.938Z,10.50
2022-10-14T02:26:42.327Z,9.90
2022-10-14T02:29:47.239Z,10.67
2022-10-14T02:32:51.963Z,10.70
2022-10-14T02:35:54.899Z,10.83
2022-10-14T02:38:59.597Z,10.93
2022-10-14T02:42:01.377Z,10.83
2022-10-14T02:45:03.364Z,10.33
2022-10-14T02:48:05.518Z,10.27
2022-10-14T02:51:06.967Z,10.30
2022-10-14T02:54:08.496Z,10.47
2022-10-14T02:57:09.940Z,10.27
2022-10-14T03:00:11.890Z,10.63
2022-10-14T03:03:13.488Z,10.17
2022-10-14T03:06:15.090Z,10.90
2022-10-14T03:09:17.210Z,10.37
2022-10-14T03:12:20.639Z,10.30
2022-10-14T03:15:23.849Z,9.83
2022-10-14T03:18:25.697Z,9.73
2022-10-14T03:21:32.953Z,10.23
2022-10-14T03:24:34.595Z,10.57
2022-10-14T03:27:57.103Z,10.20
2022-10-14T03:31:11.072Z,10.13
2022-10-14T03:34:38.431Z,9.97
2022-10-14T03:37:47.451Z,9.10
2022-10-14T03:40:51.683Z,10.27
2022-10-14T03:43:54.105Z,9.27
2022-10-14T03:46:56.006Z,9.20
2022-10-14T03:50:05.041Z,9.27
2022-10-14T03:53:15.376Z,8.90
2022-10-14T03:56:18.275Z,8.50
2022-10-14T03:59:20.480Z,8.30
2022-10-14T04:02:24.756Z,8.47
2022-10-14T04:05:33.687Z,8.17
2022-10-14T04:08:38.496Z,7.83
2022-10-14T04:12:01.654Z,8.60
2022-10-14T04:15:29.020Z,8.37
2022-10-14T04:18:43.604Z,7.90
2022-10-14T04:21:46.833Z,9.10
2022-10-14T04:24:51.032Z,9.13
2022-10-14T04:27:52.584Z,8.20
2022-10-14T04:30:54.203Z,9.07
2022-10-14T04:34:00.599Z,8.80
2022-10-14T04:37:07.790Z,8.33
2022-10-14T04:40:30.609Z,8.17
2022-10-14T04:43:32.735Z,8.07
2022-10-14T04:46:46.714Z,8.77
2022-10-14T04:49:48.534Z,8.03
2022-10-14T04:52:55.052Z,8.10
2022-10-14T04:55:57.477Z,8.20
2022-10-14T04:58:58.932Z,7.63
2022-10-14T05:02:17.703Z,7.97
2022-10-14T05:05:25.146Z,7.13
2022-10-14T05:08:30.589Z,7.77
2022-10-14T05:11:34.554Z,8.60
2022-10-14T05:14:37.030Z,7.63
2022-10-14T05:17:48.810Z,7.90
2022-10-14T05:20:54.053Z,7.83
2022-10-14T05:23:58.319Z,8.17
2022-10-14T05:27:02.860Z,7.87
2022-10-14T05:30:06.634Z,8.07
2022-10-14T05:33:13.236Z,8.03
2022-10-14T05:36:16.215Z,8.33
2022-10-14T05:39:17.704Z,7.60
2022-10-14T05:42:19.346Z,7.30
2022-10-14T05:45:21.963Z,8.07
2022-10-14T05:48:27.053Z,7.23
2022-10-14T05:51:28.615Z,7.50
2022-10-14T05:54:37.902Z,7.53
2022-10-14T05:57:43.582Z,8.70
2022-10-14T06:00:47.565Z,7.80
2022-10-14T06:03:53.024Z,7.57
2022-10-14T06:06:54.504Z,7.53
2022-10-14T06:09:55.943Z,8.13
2022-10-14T06:12:57.370Z,8.43
2022-10-14T06:16:07.441Z,8.57
2022-10-14T06:19:08.893Z,8.73
2022-10-14T06:22:10.386Z,8.47
2022-10-14T06:25:11.785Z,9.30
2022-10-14T06:28:13.267Z,8.30
2022-10-14T06:31:15.177Z,7.83
2022-10-14T06:34:16.585Z,8.87
2022-10-14T06:37:17.997Z,7.73
2022-10-14T06:40:19.640Z,8.50
2022-10-14T06:43:22.071Z,8.37
2022-10-14T06:46:25.180Z,8.87
2022-10-14T06:49:26.574Z,8.80
2022-10-14T06:52:27.995Z,7.70
2022-10-14T06:55:29.753Z,8.00
2022-10-14T06:58:32.603Z,7.83
2022-10-14T07:01:34.102Z,7.83
2022-10-14T07:04:35.679Z,7.47
2022-10-14T07:07:37.083Z,8.60
2022-10-14T07:10:38.482Z,8.30
2022-10-14T07:13:39.997Z,8.30
2022-10-14T07:16:43.606Z,8.10
2022-10-14T07:19:45.379Z,7.30
2022-10-14T07:22:46.873Z,7.97
2022-10-14T07:25:48.255Z,7.20
2022-10-14T07:28:49.730Z,6.80
2022-10-14T07:31:51.220Z,7.23
2022-10-14T07:34:52.620Z,7.50
2022-10-14T07:37:54.810Z,7.27
2022-10-14T07:41:05.262Z,7.03
2022-10-14T07:44:09.348Z,6.90
2022-10-14T07:47:10.775Z,7.13
2022-10-14T07:50:12.493Z,7.47
2022-10-14T07:53:13.859Z,7.00
2022-10-14T07:56:15.476Z,7.73
2022-10-14T07:59:19.326Z,7.30
2022-10-14T08:02:21.029Z,6.97
2022-10-14T08:05:39.020Z,7.10
2022-10-14T08:08:41.447Z,7.63
2022-10-14T08:11:43.289Z,7.70
2022-10-14T08:14:44.794Z,7.80
2022-10-14T08:17:46.469Z,8.10
2022-10-14T08:20:47.876Z,8.10
2022-10-14T08:23:49.594Z,7.60
2022-10-14T08:26:53.648Z,8.23
2022-10-14T08:29:55.024Z,7.37
2022-10-14T08:32:56.481Z,7.53
2022-10-14T08:35:57.896Z,8.10
2022-10-14T08:38:59.360Z,7.90
2022-10-14T08:42:17.872Z,7.67
2022-10-14T08:45:32.642Z,7.40
2022-10-14T08:48:35.215Z,7.70
2022-10-14T08:51:38.026Z,7.57
2022-10-14T08:54:44.120Z,7.83
2022-10-14T08:57:53.873Z,7.70
2022-10-14T09:00:56.172Z,8.13
2022-10-14T09:04:06.230Z,7.20
2022-10-14T09:07:16.048Z,6.27
2022-10-14T09:10:39.410Z,6.57
2022-10-14T09:13:43.967Z,6.70
2022-10-14T09:16:51.794Z,6.37
2022-10-14T09:20:05.221Z,7.10
2022-10-14T09:23:15.791Z,6.63
2022-10-14T09:26:19.759Z,6.07
2022-10-14T09:29:46.545Z,6.47
2022-10-14T09:32:54.111Z,6.40
2022-10-14T09:39:03.809Z,6.63
2022-10-14T09:42:17.999Z,6.83
2022-10-14T09:45:22.641Z,7.30
2022-10-14T09:48:50.052Z,6.97
2022-10-14T09:51:51.954Z,7.37
2022-10-14T09:55:01.495Z,6.47
2022-10-14T09:58:14.016Z,6.87
2022-10-14T10:01:19.022Z,6.27
2022-10-14T10:04:33.537Z,7.23
2022-10-14T10:07:35.285Z,6.70
2022-10-14T10:10:36.882Z,6.60
2022-10-14T10:13:47.017Z,6.57
2022-10-14T10:17:12.583Z,6.90
2022-10-14T10:20:33.450Z,5.87
2022-10-14T10:23:36.344Z,6.10
2022-10-14T10:26:37.764Z,5.93
2022-10-14T10:29:39.143Z,6.00
2022-10-14T10:33:06.593Z,6.40
2022-10-14T10:36:11.029Z,6.20
2022-10-14T10:39:48.036Z,5.53
2022-10-14T10:43:11.498Z,5.77
2022-10-14T10:46:21.888Z,5.40
2022-10-14T10:49:44.473Z,5.27
2022-10-14T10:53:04.697Z,4.67
2022-10-14T10:56:20.225Z,4.87
2022-10-14T10:59:40.011Z,4.50
2022-10-14T11:02:45.816Z,4.90
2022-10-14T11:06:07.004Z,4.23
2022-10-14T11:09:48.670Z,3.77
2022-10-14T11:13:02.171Z,3.80
2022-10-14T11:16:26.291Z,3.47
2022-10-14T11:19:40.691Z,3.60
2022-10-14T11:23:11.466Z,3.70
2022-10-14T11:26:47.252Z,3.60
2022-10-14T11:30:06.654Z,3.77
2022-10-14T11:33:47.674Z,3.50
2022-10-14T11:37:18.050Z,3.30
2022-10-14T11:40:47.003Z,3.87
2022-10-14T11:44:32.253Z,3.73
2022-10-14T11:47:38.627Z,3.97
2022-10-14T11:50:45.743Z,3.40
2022-10-14T11:54:04.039Z,2.97
2022-10-14T11:57:32.596Z,2.90
2022-10-14T12:00:56.760Z,3.23
2022-10-14T12:04:10.688Z,3.20
2022-10-14T12:07:17.948Z,3.40
2022-10-14T12:10:26.786Z,3.53
2022-10-14T12:13:41.648Z,3.90
2022-10-14T12:16:45.857Z,3.97
2022-10-14T12:19:47.653Z,3.77
2022-10-14T12:22:50.667Z,3.70
2022-10-14T12:26:02.230Z,3.87
2022-10-14T12:29:14.605Z,3.63
2022-10-14T12:32:16.088Z,3.03
2022-10-14T12:35:51.716Z,3.73
2022-10-14T12:39:18.561Z,3.70
2022-10-14T12:42:22.189Z,3.87
2022-10-14T12:45:26.734Z,3.83
2022-10-14T12:48:36.225Z,3.97
2022-10-14T12:51:37.658Z,3.30
2022-10-14T12:54:48.271Z,2.87
2022-10-14T12:57:55.154Z,2.90
2022-10-14T13:01:05.972Z,3.00
2022-10-14T13:04:19.979Z,3.10
2022-10-14T13:07:41.200Z,3.10
2022-10-14T13:10:59.608Z,2.80
2022-10-14T13:14:02.139Z,3.17
2022-10-14T13:17:24.479Z,3.40
2022-10-14T13:20:35.139Z,3.10
2022-10-14T13:24:05.869Z,3.53
2022-10-14T13:27:56.796Z,3.03
2022-10-14T13:31:21.631Z,3.10
2022-10-14T13:34:43.745Z,3.20
2022-10-14T13:38:12.505Z,3.43
2022-10-14T13:41:18.651Z,3.77
2022-10-14T13:44:22.950Z,4.03
2022-10-14T13:47:26.085Z,3.83
2022-10-14T13:50:34.379Z,4.10
2022-10-14T13:53:35.961Z,3.83
2022-10-14T13:56:37.669Z,3.50
2022-10-14T13:59:47.016Z,3.50
2022-10-14T14:03:20.298Z,4.40
2022-10-14T14:06:24.418Z,4.10
2022-10-14T14:09:29.158Z,3.50
2022-10-14T14:12:30.947Z,3.80
2022-10-14T14:15:40.497Z,4.10
2022-10-14T14:18:56.031Z,3.30
2022-10-14T14:22:19.598Z,3.93
2022-10-14T14:25:34.038Z,3.50
2022-10-14T14:28:36.660Z,3.60
2022-10-14T14:32:01.819Z,3.50
2022-10-14T14:35:01.253Z,3.70
2022-10-14T14:38:03.404Z,4.47
2022-10-14T14:41:05.138Z,4.07
2022-10-14T14:44:24.479Z,4.50
2022-10-14T14:47:27.680Z,4.40
2022-10-14T14:50:42.760Z,3.90
2022-10-14T14:53:51.725Z,3.90
2022-10-14T14:57:00.894Z,3.97
2022-10-14T15:00:06.125Z,3.03
2022-10-14T15:03:09.079Z,3.30
2022-10-14T15:06:17.661Z,3.33
2022-10-14T15:09:30.064Z,3.50
2022-10-14T15:12:39.068Z,4.80
2022-10-14T15:15:53.517Z,5.63
2022-10-14T15:19:13.009Z,5.50
2022-10-14T15:22:17.447Z,5.53
2022-10-14T15:25:22.705Z,3.90
2022-10-14T15:28:30.576Z,3.20
2022-10-14T15:31:38.967Z,2.80
2022-10-14T15:34:41.040Z,2.70
2022-10-14T15:37:42.445Z,2.80
2022-10-14T15:40:45.992Z,3.57
2022-10-14T15:43:48.249Z,2.80
2022-10-14T15:47:08.817Z,3.10
2022-10-14T15:50:21.141Z,3.50
2022-10-14T15:53:26.868Z,3.10
2022-10-14T15:56:29.362Z,2.90
2022-10-14T15:59:31.002Z,2.93
2022-10-14T16:02:33.406Z,2.90
2022-10-14T16:05:36.590Z,3.20
2022-10-14T16:08:44.311Z,3.00
2022-10-14T16:11:46.146Z,2.60
2022-10-14T16:14:47.560Z,3.57
2022-10-14T16:17:52.071Z,3.50
2022-10-14T16:20:54.928Z,3.50
2022-10-14T16:23:58.603Z,3.40
2022-10-14T16:27:02.995Z,3.57
2022-10-14T16:30:04.845Z,3.53
2022-10-14T16:33:06.552Z,4.00
2022-10-14T16:36:13.305Z,4.77
2022-10-14T16:39:15.689Z,5.13
2022-10-14T16:42:18.439Z,4.30
2022-10-14T16:45:20.311Z,4.10
2022-10-14T16:48:21.789Z,3.50
2022-10-14T16:51:24.583Z,3.60
2022-10-14T16:54:26.142Z,3.17
2022-10-14T16:57:28.198Z,3.10
2022-10-14T17:00:29.591Z,2.97
2022-10-14T17:03:30.979Z,3.97
2022-10-14T17:06:32.614Z,4.20
2022-10-14T17:09:36.464Z,3.57
2022-10-14T17:12:39.378Z,3.70
2022-10-14T17:15:40.806Z,4.17
2022-10-14T17:18:42.471Z,3.37
2022-10-14T17:21:49.259Z,3.70
2022-10-14T17:24:50.751Z,3.40
2022-10-14T17:27:52.459Z,3.40
2022-10-14T17:30:54.016Z,4.50
2022-10-14T17:33:56.020Z,4.70
2022-10-14T17:36:59.461Z,4.97
2022-10-14T17:40:01.113Z,5.17
2022-10-14T17:43:02.572Z,5.93
2022-10-14T17:49:15.791Z,6.53
2022-10-14T17:52:17.208Z,8.47
2022-10-14T17:58:25.043Z,6.80
2022-10-14T18:01:37.016Z,7.30
2022-10-14T18:04:39.503Z,7.10
2022-10-14T18:07:40.971Z,6.63
2022-10-14T18:10:42.470Z,9.40
2022-10-14T18:13:43.954Z,7.90
2022-10-14T18:16:45.748Z,6.57
2022-10-14T18:19:51.848Z,5.93
2022-10-14T18:22:53.920Z,5.03
2022-10-14T18:25:55.381Z,4.70
2022-10-14T18:29:00.948Z,4.53
2022-10-14T18:32:02.540Z,5.30
2022-10-14T18:35:05.510Z,4.73
2022-10-14T18:38:07.005Z,5.00
2022-10-14T18:41:11.970Z,6.87
2022-10-14T18:44:13.471Z,5.27
2022-10-14T18:47:14.996Z,3.80
2022-10-14T18:50:16.517Z,2.73
2022-10-14T18:53:17.894Z,2.30
2022-10-14T18:56:22.729Z,2.20
2022-10-14T18:59:24.174Z,2.00
2022-10-14T19:02:25.732Z,2.10
2022-10-14T19:05:32.197Z,2.23
2022-10-14T19:08:39.849Z,2.30
2022-10-14T19:11:41.770Z,2.03
2022-10-14T19:14:43.776Z,2.10
2022-10-14T19:17:50.917Z,2.50
2022-10-14T19:20:57.976Z,2.20
2022-10-14T19:24:01.925Z,2.63
2022-10-14T19:27:03.416Z,2.97
2022-10-14T19:30:05.498Z,2.70
2022-10-14T19:33:06.902Z,2.70
2022-10-14T19:36:09.354Z,2.63
2022-10-14T19:39:13.677Z,3.10
2022-10-14T19:42:15.087Z,2.83
2022-10-14T19:45:16.685Z,3.97
2022-10-14T19:48:18.092Z,4.40
2022-10-14T19:51:19.514Z,6.30
2022-10-14T19:54:20.921Z,4.07
2022-10-14T19:57:22.662Z,4.77
2022-10-14T20:00:24.276Z,3.80
2022-10-14T20:03:26.674Z,3.00
2022-10-14T20:06:35.410Z,2.30
2022-10-14T20:09:36.830Z,2.67
2022-10-14T20:12:38.355Z,3.60
2022-10-14T20:15:39.849Z,6.83
2022-10-14T20:18:41.750Z,5.40
2022-10-14T20:21:43.281Z,4.07
2022-10-14T20:24:44.879Z,3.20
2022-10-14T20:27:46.257Z,3.20
2022-10-14T20:30:48.207Z,3.60
2022-10-14T20:33:49.615Z,3.90
2022-10-14T20:36:51.002Z,3.10
2022-10-14T20:39:53.810Z,2.27
2022-10-14T20:42:55.489Z,2.60
2022-10-14T20:45:56.902Z,2.87
2022-10-14T20:48:58.402Z,2.60
2022-10-14T20:51:59.807Z,3.43
2022-10-14T20:55:01.342Z,2.80
2022-10-14T20:58:03.469Z,2.30
2022-10-14T21:01:16.938Z,2.53
2022-10-14T21:04:18.427Z,2.47
2022-10-14T21:07:23.293Z,1.83
2022-10-14T21:10:24.948Z,2.10
2022-10-14T21:13:27.854Z,1.80
2022-10-14T21:16:34.341Z,2.30
2022-10-14T21:19:35.788Z,2.30
2022-10-14T21:22:37.192Z,2.30
2022-10-14T21:25:38.657Z,2.27
2022-10-14T21:28:40.738Z,1.50
2022-10-14T21:31:42.285Z,2.00
2022-10-14T21:34:43.674Z,1.87
2022-10-14T21:37:45.068Z,1.60
2022-10-14T21:40:46.503Z,1.70
2022-10-14T21:43:47.876Z,2.13
2022-10-14T21:46:49.594Z,2.40
2022-10-14T21:49:51.013Z,1.83
2022-10-14T21:52:52.469Z,1.60
2022-10-14T21:55:53.863Z,1.73
2022-10-14T21:58:55.685Z,5.20
2022-10-14T22:01:58.900Z,3.40
2022-10-14T22:05:00.590Z,3.03
2022-10-14T22:08:02.071Z,4.60
2022-10-14T22:11:04.610Z,4.50
2022-10-14T22:14:08.448Z,3.73
2022-10-14T22:17:09.950Z,4.77
2022-10-14T22:20:11.491Z,3.27
2022-10-14T22:23:12.923Z,3.10
2022-10-14T22:26:16.846Z,2.80
2022-10-14T22:29:18.341Z,2.30
2022-10-14T22:32:19.712Z,2.00
2022-10-14T22:35:22.771Z,1.90
2022-10-14T22:38:24.298Z,1.87
2022-10-14T22:41:27.907Z,1.57
2022-10-14T22:44:31.270Z,1.33
2022-10-14T22:47:32.792Z,1.40
2022-10-14T22:50:35.231Z,1.47
2022-10-14T22:53:38.049Z,1.50
2022-10-14T22:56:39.795Z,1.50
2022-10-14T22:59:41.543Z,1.40
2022-10-14T23:02:42.972Z,1.33
2022-10-14T23:05:44.374Z,1.40
2022-10-14T23:08:45.912Z,1.10
2022-10-14T23:11:47.409Z,1.20
2022-10-14T23:14:48.780Z,1.20
2022-10-14T23:17:50.153Z,1.13
2022-10-14T23:20:51.910Z,1.27
2022-10-14T23:23:56.074Z,1.20
2022-10-14T23:26:57.456Z,1.07
2022-10-14T23:29:58.925Z,1.13
2022-10-14T23:33:00.314Z,1.27
2022-10-14T23:36:06.377Z,1.03
2022-10-14T23:39:08.017Z,0.80
2022-10-14T23:42:09.413Z,0.90
2022-10-14T23:45:11.085Z,1.00
2022-10-14T23:48:12.454Z,1.03
2022-10-14T23:51:13.887Z,0.93
2022-10-14T23:54:15.500Z,0.90
2022-10-14T23:57:16.902Z,1.30
